Latest Weather Observations for Cunderdin Airport

IDW60801

Issued at 10:05 pm WST Thursday 2 October 2014 (issued every 30 minutes, with the page automatically refreshed every 10 minutes)

About weather observations | Map of weather stations | Latest weather observations for WA | Other Formats
Station Details ID: 010286 Name: CUNDERDIN AIRFIELD Lat: -31.62 Lon: 117.22 Height: 216.7 m
Data from the previous 72 hours. | See also: Recent months at Cunderdin Airport
Date/Time
WST
Temp
°C
App
Temp
°C
Dew
Point
Rel
Hum
%
Delta-T
°C
Wind Press
QNH
hPa
Press
MSL
hPa
Rain
since 9 am
mm
Dir
 
Spd
km/h
Gust
km/h
Spd
kts
Gust
kts
02/10:00pm 17.4 17.1 14.3 82 1.8 W 9 20 5 11 1016.6 1016.2 0.0
02/09:30pm 17.3 15.7 14.0 81 1.9 W 15 20 8 11 1016.6 1016.2 0.0
02/09:00pm 18.5 16.2 14.2 76 2.5 W 19 26 10 14 1016.5 1016.1 0.0
02/08:30pm 18.7 13.9 14.0 74 2.7 W 32 44 17 24 1016.5 1016.1 0.0
02/08:00pm 18.7 16.2 14.2 75 2.6 W 20 32 11 17 1016.3 1015.9 0.0
02/07:30pm 18.1 14.4 13.8 76 2.5 W 26 37 14 20 1015.9 1015.5 0.0
02/07:00pm 18.6 14.5 13.7 73 2.8 W 28 35 15 19 1015.2 1014.8 0.0
02/06:30pm 20.0 15.9 13.7 67 3.7 W 28 37 15 20 1014.3 1013.9 0.0
02/06:00pm 21.4 17.7 13.8 62 4.4 W 26 33 14 18 1013.6 1013.2 0.0
02/05:30pm 23.4 19.3 13.8 54 5.7 WNW 28 35 15 19 1013.1 1012.7 0.0
02/05:00pm 25.1 20.5 14.6 52 6.3 W 32 43 17 23 1012.7 1012.3 0.0
02/04:30pm 27.3 23.7 15.3 48 7.4 W 28 35 15 19 1012.2 1011.8 0.0
02/04:00pm 28.0 24.5 13.5 41 8.7 W 24 33 13 18 1011.9 1011.5 0.0
02/03:30pm 28.8 24.6 13.5 39 9.2 W 28 39 15 21 1011.7 1011.3 0.0
02/03:00pm 29.9 25.7 13.6 36 9.8 W 28 35 15 19 1011.5 1011.1 0.0
02/02:30pm 30.5 26.5 11.9 31 11.0 NW 24 33 13 18 1011.3 1010.9 0.0
02/02:00pm 30.6 26.4 12.5 33 10.8 WNW 26 37 14 20 1011.2 1010.8 0.0
02/01:30pm 31.3 27.0 9.5 26 12.4 N 22 37 12 20 1011.3 1010.9 0.0
02/01:00pm 32.0 27.1 10.1 26 12.6 WNW 26 43 14 23 1011.5 1011.1 0.0
02/12:30pm 31.9 27.2 9.4 25 12.8 N 24 44 13 24 1011.7 1011.3 0.0
02/12:00pm 31.6 28.7 9.8 26 12.5 N 15 24 8 13 1012.0 1011.6 0.0
02/11:30am 31.0 27.8 9.8 27 12.1 N 17 28 9 15 1012.5 1012.1 0.0
02/11:00am 29.5 26.7 8.5 27 11.7 N 13 22 7 12 1012.9 1012.5 0.0
02/10:30am 28.2 26.0 8.0 28 11.1 NNE 9 15 5 8 1013.2 1012.8 0.0
02/10:00am 28.0 26.3 8.3 29 10.8 N 7 20 4 11 1013.9 1013.5 0.0
02/09:30am 26.3 24.0 7.4 30 10.1 N 9 15 5 8 1014.5 1014.0 0.0
02/09:00am 25.2 22.2 7.8 33 9.3 N 13 19 7 10 1014.9 1014.4 0.0
02/08:30am 23.9 21.8 8.3 37 8.4 NW 9 15 5 8 1014.9 1014.4 0.0
02/08:00am 22.1 20.0 8.2 41 7.4 NNW 9 13 5 7 1014.7 1014.2 0.0
02/07:30am 19.1 18.2 10.6 58 4.6 W 6 7 3 4 1014.6 1014.1 0.0
02/07:00am 16.2 14.1 9.8 66 3.4 W 11 13 6 7 1014.6 1014.1 0.0
02/06:30am 13.8 13.0 9.6 76 2.2 NNE 4 13 2 7 1014.2 1013.8 0.0
02/06:00am 12.8 10.7 8.1 73 2.3 E 9 11 5 6 1013.5 1013.1 0.0
02/05:30am 13.4 10.9 8.0 70 2.7 E 11 11 6 6 1013.9 1013.5 0.0
02/05:00am 16.1 15.2 9.1 63 3.6 SSE 4 7 2 4 1013.7 1013.3 0.0
02/04:30am 18.1 16.0 8.4 53 5.0 ESE 9 11 5 6 1013.5 1013.1 0.0
02/04:00am 19.2 16.4 8.5 50 5.6 E 13 17 7 9 1013.4 1013.0 0.0
02/03:30am 20.1 16.5 8.4 47 6.2 E 17 26 9 14 1013.5 1013.1 0.0
02/03:00am 20.2 16.5 9.5 50 5.8 E 19 24 10 13 1013.5 1013.1 0.0
02/02:30am 19.4 16.5 9.6 53 5.3 ENE 15 19 8 10 1014.2 1013.8 0.0
02/02:00am 20.3 16.8 8.9 48 6.1 E 17 20 9 11 1014.6 1014.1 0.0
02/01:30am 19.8 17.8 10.2 54 5.2 E 11 13 6 7 1015.4 1015.0 0.0
02/01:00am 19.6 17.8 10.9 57 4.8 E 11 15 6 8 1015.7 1015.3 0.0
02/12:30am 21.8 18.9 8.3 42 7.2 ENE 13 19 7 10 1015.9 1015.5 0.0
02/12:00am 23.3 19.9 7.8 37 8.2 ENE 15 20 8 11 1015.7 1015.3 0.0
 
Date/Time
WST
Temp
°C
App
Temp
°C
Dew
Point
Rel
Hum
%
Delta-T
°C
Wind Press
QNH
hPa
Press
MSL
hPa
Rain
since 9 am
mm
Dir
 
Spd
km/h
Gust
km/h
Spd
kts
Gust
kts
01/11:30pm 23.0 17.9 7.5 37 8.2 NE 24 32 13 17 1015.8 1015.4 0.0
01/11:00pm 20.4 17.8 9.3 49 5.9 ENE 13 17 7 9 1016.0 1015.6 0.0
01/10:30pm 19.0 17.8 10.3 57 4.7 ESE 7 13 4 7 1016.6 1016.2 0.0
01/10:00pm 19.1 19.4 10.9 59 4.5 CALM 0 0 0 0 1017.1 1016.7 0.0
01/09:30pm 18.9 19.1 10.7 59 4.5 CALM 0 0 0 0 1016.9 1016.5 0.0
01/09:00pm 19.1 19.3 10.6 58 4.6 CALM 0 4 0 2 1016.7 1016.3 0.0
01/08:30pm 20.3 18.7 8.6 47 6.2 E 7 9 4 5 1016.5 1016.1 0.0
01/08:00pm 22.7 20.5 7.7 38 7.9 E 9 11 5 6 1016.4 1016.0 0.0
01/07:30pm 24.1 20.9 6.8 33 9.1 ESE 13 19 7 10 1016.1 1015.7 0.0
01/07:00pm 24.5 21.0 7.2 33 9.1 ESE 15 20 8 11 1015.8 1015.4 0.0
01/06:30pm 24.7 22.0 7.4 33 9.2 E 11 15 6 8 1016.0 1015.6 0.0
01/06:00pm 25.2 21.7 7.3 32 9.5 E 15 20 8 11 1016.0 1015.6 0.0
01/05:30pm 25.6 23.4 7.7 32 9.6 ENE 9 13 5 7 1016.4 1016.0 0.0
01/05:00pm 26.9 22.7 5.8 26 11.0 ENE 17 20 9 11 1016.3 1015.9 0.0
01/04:30pm 28.0 23.2 5.6 24 11.8 ENE 20 30 11 16 1016.0 1015.6 0.0
01/04:00pm 30.3 24.0 5.6 21 13.1 ENE 28 39 15 21 1015.8 1015.4 0.0
01/03:30pm 30.2 25.4 5.5 21 13.1 ENE 20 28 11 15 1015.8 1015.4 0.0
01/03:00pm 28.1 23.4 6.2 25 11.6 ENE 20 28 11 15 1016.4 1016.0 0.0
01/02:30pm 28.8 23.9 6.8 25 11.8 E 22 35 12 19 1016.3 1015.9 0.0
01/02:00pm 29.7 25.1 8.2 26 11.9 E 22 30 12 16 1016.9 1016.5 0.0
01/01:30pm 28.0 23.8 7.3 27 11.2 NE 19 26 10 14 1017.8 1017.4 0.0
01/01:00pm 29.7 25.3 7.6 25 12.1 ENE 20 30 11 16 1017.7 1017.3 0.0
01/12:30pm 28.5 24.3 8.2 28 11.2 E 20 30 11 16 1018.4 1018.0 0.0
01/12:00pm 27.8 23.8 8.1 29 10.8 NE 19 26 10 14 1018.7 1018.3 0.0
01/11:30am 26.7 22.3 7.2 29 10.4 NE 20 28 11 15 1019.3 1018.9 0.0
01/11:00am 27.3 22.6 7.7 29 10.6 ENE 22 32 12 17 1019.6 1019.2 0.0
01/10:30am 26.7 21.6 7.7 30 10.3 NE 24 33 13 18 1020.0 1019.6 0.0
01/10:00am 25.8 20.8 7.9 32 9.6 ENE 24 33 13 18 1020.3 1019.9 0.0
01/09:30am 24.9 20.0 8.4 35 8.9 ENE 24 33 13 18 1020.6 1020.2 0.0
01/09:00am 23.0 17.7 8.3 39 7.8 ENE 26 35 14 19 1021.2 1020.8 0.0
01/08:30am 20.1 16.0 8.8 48 6.0 E 20 28 11 15 1021.0 1020.6 0.0
01/08:00am 17.7 13.9 9.1 57 4.5 E 19 24 10 13 1021.0 1020.6 0.0
01/07:30am 15.1 10.6 8.6 65 3.3 E 22 32 12 17 1020.5 1020.5 0.0
01/07:00am 13.3 10.6 9.0 75 2.2 E 13 17 7 9 1021.3 1021.3 0.0
01/06:30am 11.4 8.9 8.3 81 1.5 E 11 17 6 9 1021.1 1021.1 0.0
01/06:00am 10.8 7.4 7.7 81 1.5 ESE 15 22 8 12 1021.0 1021.0 0.0
01/05:30am 10.6 7.6 7.8 83 1.4 ESE 13 17 7 9 1020.8 1020.8 0.0
01/05:00am 10.4 8.1 7.5 82 1.4 E 9 11 5 6 1020.8 1020.8 0.0
01/04:30am 11.3 8.4 8.2 81 1.5 ESE 13 19 7 10 1020.2 1020.1 0.0
01/04:00am 10.6 8.8 7.8 83 1.4 E 7 9 4 5 1020.6 1020.6 0.0
01/03:30am 11.2 8.7 8.1 81 1.5 E 11 15 6 8 1020.4 1020.3 0.0
01/03:00am 12.7 8.7 8.4 75 2.2 E 19 24 10 13 1019.7 1019.6 0.0
01/02:30am 12.6 9.0 8.5 76 2.1 SE 17 26 9 14 1019.5 1019.4 0.0
01/02:00am 12.6 9.4 8.5 76 2.1 ESE 15 20 8 11 1020.2 1020.1 0.0
01/01:30am 12.8 10.0 8.5 75 2.2 E 13 19 7 10 1020.6 1020.6 0.0
01/01:00am 12.2 9.3 8.3 77 1.9 E 13 19 7 10 1020.9 1020.9 0.0
01/12:30am 11.9 9.6 7.6 75 2.1 ESE 9 13 5 7 1020.9 1020.9 0.0
01/12:00am 11.6 9.2 8.5 81 1.5 ESE 11 15 6 8 1021.2 1021.2 0.0
 
Date/Time
WST
Temp
°C
App
Temp
°C
Dew
Point
Rel
Hum
%
Delta-T
°C
Wind Press
QNH
hPa
Press
MSL
hPa
Rain
since 9 am
mm
Dir
 
Spd
km/h
Gust
km/h
Spd
kts
Gust
kts
30/11:30pm 7.6 5.0 5.9 89 0.8 ENE 9 9 5 5 1021.5 1021.5 0.0
30/11:00pm 7.4 4.7 5.5 88 0.9 E 9 11 5 6 1021.6 1021.6 0.0
30/10:30pm 7.6 5.4 5.4 86 1.0 E 6 9 3 5 1021.8 1021.8 0.0
30/10:00pm 8.4 6.1 5.9 84 1.1 E 7 7 4 4 1021.9 1021.9 0.0
30/09:30pm 9.9 7.1 7.0 82 1.4 E 11 13 6 7 1022.2 1022.2 0.0
30/09:00pm 11.2 8.6 6.1 71 2.4 E 9 11 5 6 1022.3 1022.3 0.0
30/08:30pm 15.3 13.1 7.8 61 3.8 ESE 9 13 5 7 1022.1 1022.1 0.0
30/08:00pm 16.2 14.0 7.7 57 4.3 SE 9 15 5 8 1021.8 1021.8 0.0
30/07:30pm 16.9 14.3 7.8 55 4.6 SE 11 13 6 7 1021.5 1021.5 0.0
30/07:00pm 17.8 15.1 7.5 51 5.2 SE 11 13 6 7 1021.2 1021.2 0.0
30/06:30pm 18.9 15.8 7.4 47 5.9 SE 13 15 7 8 1020.9 1020.9 0.0
30/06:00pm 20.8 17.6 6.7 40 7.2 SE 13 19 7 10 1020.8 1020.8 0.0
30/05:30pm 22.5 18.4 6.3 35 8.3 SE 17 22 9 12 1020.6 1020.6 0.0
30/05:00pm 23.1 19.0 6.4 34 8.6 SE 17 24 9 13 1020.6 1020.6 0.0
30/04:30pm 23.7 19.9 5.6 31 9.3 SE 15 22 8 12 1020.6 1020.6 0.0
30/04:00pm 24.1 20.3 5.9 31 9.3 ESE 15 24 8 13 1020.7 1020.7 0.0
30/03:30pm 24.2 20.4 6.0 31 9.4 E 15 26 8 14 1020.7 1020.7 0.0
30/03:00pm 23.9 20.5 5.8 31 9.3 ESE 13 20 7 11 1020.7 1020.7 0.0
30/02:30pm 23.7 20.3 6.0 32 9.1 ESE 13 24 7 13 1020.9 1020.9 0.0
30/02:00pm 23.2 19.2 6.5 34 8.6 ESE 17 24 9 13 1021.1 1021.1 0.0
30/01:30pm 22.7 18.9 6.0 34 8.5 ESE 15 24 8 13 1021.5 1021.5 0.0
30/01:00pm 21.9 18.4 5.3 34 8.3 E 13 20 7 11 1021.8 1021.8 0.0
30/12:30pm 22.0 18.6 7.8 40 7.5 ESE 15 20 8 11 1022.2 1022.2 0.0
30/12:00pm 21.4 17.9 8.7 44 6.8 E 17 26 9 14 1022.7 1022.7 0.0
30/11:30am 20.2 16.6 8.2 46 6.3 E 17 24 9 13 1023.0 1023.0 0.0
30/11:00am 19.2 15.6 8.2 49 5.7 E 17 24 9 13 1023.4 1023.4 0.0
30/10:30am 18.5 15.3 8.5 52 5.2 E 15 24 8 13 1023.7 1023.7 0.0
30/10:00am 17.4 14.0 9.1 58 4.3 ESE 17 28 9 15 1023.9 1023.9 0.0
30/09:30am 16.5 12.5 9.0 61 3.9 ESE 20 28 11 15 1024.2 1024.1 0.0
30/09:00am 15.8 11.9 9.5 66 3.3 ESE 20 28 11 15 1024.1 1024.0 0.0
30/08:30am 13.9 12.1 12.1 89 1.0 SE 13 17 7 9 1024.1 1024.0 0.0
30/08:00am 11.4 10.0 10.9 97 0.3 ESE 9 13 5 7 1023.9 1023.9 0.0
30/07:30am 9.3 7.7 8.8 97 0.2 ENE 7 9 4 5 1023.8 1023.8 0.0
30/07:00am 6.3 4.0 5.9 97 0.2 NE 7 9 4 5 1023.5 1023.5 0.0
30/06:30am 4.9 2.3 4.3 96 0.3 NE 7 9 4 5 1023.3 1023.3 0.0
30/06:00am 3.4 1.9 2.8 96 0.2 CALM 0 0 0 0 1023.0 1023.0 0.0
30/05:30am 2.5 -0.3 1.8 95 0.3 NE 6 7 3 4 1022.8 1022.8 0.0
30/05:00am 4.7 3.4 4.1 96 0.3 CALM 0 7 0 4 1022.6 1022.6 0.0
30/04:30am 5.0 3.8 4.4 96 0.3 CALM 0 0 0 0 1022.3 1022.3 0.0
30/04:00am 5.3 4.1 4.7 96 0.3 CALM 0 0 0 0 1021.9 1021.9 0.0
30/03:30am 3.9 1.3 3.2 95 0.3 N 6 7 3 4 1021.7 1021.7 0.0
30/03:00am 4.0 2.6 3.3 95 0.3 CALM 0 0 0 0 1021.4 1021.4 0.0
30/02:30am 4.5 3.1 3.8 95 0.3 CALM 0 0 0 0 1021.3 1021.3 0.0
30/02:00am 4.6 3.2 3.7 94 0.4 CALM 0 0 0 0 1021.3 1021.3 0.0
30/01:30am 7.1 4.9 6.4 95 0.3 W 7 9 4 5 1021.1 1021.1 0.0
30/01:00am 7.1 4.9 6.2 94 0.4 W 7 9 4 5 1021.2 1021.2 0.0
30/12:30am 7.7 5.3 6.8 94 0.4 W 9 9 5 5 1021.1 1021.1 0.0
30/12:00am 8.0 6.0 6.9 93 0.5 W 7 9 4 5 1021.3 1021.3 0.0
 
Date/Time
WST
Temp
°C
App
Temp
°C
Dew
Point
Rel
Hum
%
Delta-T
°C
Wind Press
QNH
hPa
Press
MSL
hPa
Rain
since 9 am
mm
Dir
 
Spd
km/h
Gust
km/h
Spd
kts
Gust
kts
29/11:30pm 8.7 6.4 7.6 93 0.5 WNW 9 11 5 6 1021.4 1021.4 0.0
29/11:00pm 9.3 8.1 8.1 92 0.6 WSW 4 7 2 4 1021.5 1021.5 0.0
29/10:30pm 10.8 9.4 9.4 91 0.7 SW 7 13 4 7 1021.6 1021.6 0.0

Other Formats:

Comma delimited format used in spreadsheet applications
http://www.bom.gov.au/fwo/IDW60801/IDW60801.95625.axf

JavaScript Object Notation format (JSON) in row-major order
http://www.bom.gov.au/fwo/IDW60801/IDW60801.95625.json